createdAt,value
2022-11-13T00:01:27.878Z,1.18
2022-11-13T00:03:57.149Z,0.59
2022-11-13T00:06:26.288Z,1.45
2022-11-13T00:08:57.440Z,0.90
2022-11-13T00:11:26.596Z,1.29
2022-11-13T00:13:57.217Z,1.46
2022-11-13T00:16:26.381Z,0.51
2022-11-13T00:18:55.898Z,1.48
2022-11-13T00:21:27.644Z,1.47
2022-11-13T00:23:57.854Z,0.88
2022-11-13T00:26:28.750Z,1.46
2022-11-13T00:29:01.157Z,1.35
2022-11-13T00:31:30.948Z,0.83
2022-11-13T00:36:50.080Z,1.45
2022-11-13T00:39:19.206Z,1.07
2022-11-13T00:41:48.332Z,1.52
2022-11-13T00:44:18.950Z,1.52
2022-11-13T00:46:48.080Z,1.43
2022-11-13T00:49:18.110Z,1.41
2022-11-13T00:51:47.231Z,1.54
2022-11-13T00:54:16.355Z,1.54
2022-11-13T00:56:45.466Z,1.00
2022-11-13T00:59:14.586Z,1.34
2022-11-13T01:01:45.253Z,1.56
2022-11-13T01:04:14.411Z,0.60
2022-11-13T01:06:43.562Z,1.60
2022-11-13T01:09:12.647Z,1.10
2022-11-13T01:11:41.851Z,0.90
2022-11-13T01:14:11.641Z,1.11
2022-11-13T01:16:40.699Z,1.06
2022-11-13T01:19:11.439Z,1.65
2022-11-13T01:21:40.578Z,1.51
2022-11-13T01:24:09.897Z,1.52
2022-11-13T01:26:38.998Z,1.20
2022-11-13T01:29:08.524Z,1.06
2022-11-13T01:31:37.846Z,1.14
2022-11-13T01:34:07.014Z,1.65
2022-11-13T01:36:37.703Z,1.51
2022-11-13T01:39:07.457Z,1.62
2022-11-13T01:41:36.904Z,1.04
2022-11-13T01:44:06.197Z,1.65
2022-11-13T01:46:37.609Z,1.66
2022-11-13T01:49:20.269Z,1.69
2022-11-13T01:51:55.335Z,1.56
2022-11-13T01:54:27.960Z,1.53
2022-11-13T01:57:07.707Z,1.75
2022-11-13T02:00:21.603Z,1.75
2022-11-13T02:02:52.502Z,1.28
2022-11-13T02:05:33.507Z,1.79
2022-11-13T02:08:08.044Z,1.59
2022-11-13T02:10:39.422Z,1.83
2022-11-13T02:13:09.466Z,1.86
2022-11-13T02:15:38.812Z,1.26
2022-11-13T02:18:16.251Z,1.57
2022-11-13T02:20:54.496Z,1.54
2022-11-13T02:23:38.994Z,1.07
2022-11-13T02:26:12.652Z,2.03
2022-11-13T02:28:43.793Z,2.05
2022-11-13T02:31:23.033Z,1.05
2022-11-13T02:33:52.309Z,1.93
2022-11-13T02:36:25.888Z,1.64
2022-11-13T02:38:56.204Z,1.84
2022-11-13T02:41:42.636Z,2.04
2022-11-13T02:44:12.322Z,2.06
2022-11-13T02:46:42.359Z,1.47
2022-11-13T02:50:34.503Z,1.82
2022-11-13T02:53:04.214Z,2.41
2022-11-13T02:55:33.564Z,2.46
2022-11-13T02:58:04.285Z,2.54
2022-11-13T03:00:33.496Z,2.47
2022-11-13T03:03:02.648Z,2.21
2022-11-13T03:05:31.813Z,2.32
2022-11-13T03:08:01.054Z,2.01
2022-11-13T03:10:37.328Z,2.38
2022-11-13T03:13:07.986Z,2.83
2022-11-13T03:15:37.236Z,2.76
2022-11-13T03:18:06.541Z,2.44
2022-11-13T03:20:38.107Z,2.49
2022-11-13T03:23:07.855Z,2.44
2022-11-13T03:25:37.045Z,2.62
2022-11-13T03:28:07.837Z,2.23
2022-11-13T03:30:37.196Z,3.08
2022-11-13T03:33:06.495Z,3.01
2022-11-13T03:35:42.975Z,2.65
2022-11-13T03:38:14.791Z,3.18
2022-11-13T03:40:44.761Z,2.85
2022-11-13T03:43:15.905Z,3.64
2022-11-13T03:46:14.659Z,3.35
2022-11-13T03:48:43.829Z,3.95
2022-11-13T03:51:12.901Z,4.12
2022-11-13T03:53:42.041Z,3.99
2022-11-13T03:56:11.172Z,4.27
2022-11-13T03:58:45.808Z,4.06
2022-11-13T04:01:17.745Z,3.76
2022-11-13T04:03:46.928Z,4.03
2022-11-13T04:06:16.314Z,3.92
2022-11-13T04:08:45.463Z,4.18
2022-11-13T04:11:15.374Z,3.47
2022-11-13T04:13:46.015Z,3.19
2022-11-13T04:16:15.194Z,3.56
2022-11-13T04:18:44.336Z,4.07
2022-11-13T04:21:13.501Z,3.88
2022-11-13T04:23:42.730Z,4.16
2022-11-13T04:26:11.976Z,3.62
2022-11-13T04:28:41.119Z,4.08
2022-11-13T04:31:11.693Z,3.63
2022-11-13T04:33:40.791Z,4.05
2022-11-13T04:36:10.457Z,3.40
2022-11-13T04:38:39.615Z,4.23
2022-11-13T04:41:25.590Z,4.28
2022-11-13T04:43:54.714Z,4.29
2022-11-13T04:46:25.306Z,3.88
2022-11-13T04:48:54.524Z,4.18
2022-11-13T04:51:23.614Z,3.81
2022-11-13T04:53:52.747Z,3.63
2022-11-13T04:56:21.875Z,3.89
2022-11-13T04:58:51.062Z,3.62
2022-11-13T05:01:20.471Z,4.13
2022-11-13T05:03:51.129Z,4.62
2022-11-13T05:06:20.254Z,3.90
2022-11-13T05:08:49.354Z,4.63
2022-11-13T05:11:18.483Z,4.67
2022-11-13T05:13:47.836Z,4.10
2022-11-13T05:16:17.374Z,4.48
2022-11-13T05:18:46.482Z,4.30
2022-11-13T05:21:17.433Z,4.55
2022-11-13T05:23:46.518Z,4.10
2022-11-13T05:26:16.992Z,4.14
2022-11-13T05:28:46.180Z,4.56
2022-11-13T05:31:18.207Z,4.08
2022-11-13T05:33:47.471Z,4.13
2022-11-13T05:36:20.059Z,4.43
2022-11-13T05:38:49.457Z,4.02
2022-11-13T05:41:20.115Z,4.56
2022-11-13T05:43:52.669Z,4.18
2022-11-13T05:46:27.327Z,4.21
2022-11-13T05:48:58.165Z,4.65
2022-11-13T05:51:31.594Z,4.56
2022-11-13T05:54:01.289Z,4.02
2022-11-13T05:56:32.352Z,4.47
2022-11-13T05:59:02.726Z,4.86
2022-11-13T06:01:34.165Z,4.92
2022-11-13T06:04:04.180Z,4.21
2022-11-13T06:06:35.557Z,4.48
2022-11-13T06:09:07.332Z,4.58
2022-11-13T06:11:36.471Z,5.16
2022-11-13T06:14:05.713Z,4.76
2022-11-13T06:16:37.922Z,4.92
2022-11-13T06:19:09.113Z,5.36
2022-11-13T06:21:42.175Z,5.19
2022-11-13T06:24:13.912Z,4.31
2022-11-13T06:26:43.381Z,4.26
2022-11-13T06:29:14.135Z,4.65
2022-11-13T06:31:43.320Z,4.48
2022-11-13T06:34:12.428Z,4.02
2022-11-13T06:36:43.090Z,4.23
2022-11-13T06:39:12.705Z,3.89
2022-11-13T06:41:41.921Z,4.38
2022-11-13T06:44:11.342Z,3.23
2022-11-13T06:46:40.511Z,3.79
2022-11-13T06:49:09.831Z,3.49
2022-11-13T06:51:38.930Z,4.12
2022-11-13T06:54:09.666Z,4.42
2022-11-13T06:56:38.798Z,4.34
2022-11-13T06:59:08.702Z,4.04
2022-11-13T07:01:38.027Z,4.73
2022-11-13T07:04:07.139Z,4.16
2022-11-13T07:06:40.173Z,4.03
2022-11-13T07:09:11.354Z,4.49
2022-11-13T07:11:40.449Z,4.59
2022-11-13T07:14:12.827Z,4.50
2022-11-13T07:17:04.741Z,4.16
2022-11-13T07:19:31.058Z,4.18
2022-11-13T07:22:00.139Z,4.75
2022-11-13T07:24:30.823Z,4.78
2022-11-13T07:27:00.116Z,4.82
2022-11-13T07:29:29.272Z,4.75
2022-11-13T07:31:58.398Z,4.34
2022-11-13T07:34:27.525Z,4.76
2022-11-13T07:36:56.725Z,4.25
2022-11-13T07:39:25.839Z,4.43
2022-11-13T07:41:56.440Z,4.46
2022-11-13T07:44:52.752Z,4.53
2022-11-13T07:47:14.625Z,3.83
2022-11-13T07:49:43.711Z,3.86
2022-11-13T07:52:12.841Z,3.90
2022-11-13T07:54:41.922Z,3.66
2022-11-13T07:57:12.627Z,3.82
2022-11-13T07:59:41.873Z,4.27
2022-11-13T08:02:15.867Z,3.67
2022-11-13T08:04:45.011Z,4.08
2022-11-13T08:07:14.741Z,4.29
2022-11-13T08:09:43.912Z,3.78
2022-11-13T08:12:14.632Z,3.56
2022-11-13T08:14:43.740Z,4.32
2022-11-13T08:17:13.107Z,4.32
2022-11-13T08:19:42.251Z,3.86
2022-11-13T08:22:11.467Z,3.88
2022-11-13T08:24:40.562Z,3.41
2022-11-13T08:27:09.714Z,3.89
2022-11-13T08:29:40.342Z,3.73
2022-11-13T08:32:09.485Z,3.45
2022-11-13T08:34:38.750Z,3.97
2022-11-13T08:37:07.885Z,4.07
2022-11-13T08:39:37.189Z,3.49
2022-11-13T08:42:07.102Z,3.66
2022-11-13T08:44:36.200Z,4.00
2022-11-13T08:47:06.938Z,3.47
2022-11-13T08:49:36.146Z,3.96
2022-11-13T08:52:05.414Z,3.83
2022-11-13T08:54:34.644Z,3.23
2022-11-13T08:57:06.080Z,3.53
2022-11-13T08:59:35.435Z,3.08
2022-11-13T09:02:06.070Z,2.97
2022-11-13T09:04:35.247Z,3.49
2022-11-13T09:07:04.399Z,2.90
2022-11-13T09:09:34.874Z,3.04
2022-11-13T09:12:03.926Z,3.12
2022-11-13T09:14:33.053Z,2.57
2022-11-13T09:17:02.197Z,2.12
2022-11-13T09:19:32.914Z,3.11
2022-11-13T09:22:02.099Z,2.76
2022-11-13T09:24:31.355Z,2.66
2022-11-13T09:27:00.478Z,2.89
2022-11-13T09:29:55.806Z,2.46
2022-11-13T09:32:25.577Z,2.95
2022-11-13T09:34:56.181Z,2.90
2022-11-13T09:37:25.236Z,2.59
2022-11-13T09:39:54.423Z,2.63
2022-11-13T09:42:26.882Z,2.64
2022-11-13T09:44:59.134Z,2.65
2022-11-13T09:47:33.155Z,2.58
2022-11-13T09:50:07.108Z,2.41
2022-11-13T09:52:38.315Z,2.21
2022-11-13T09:55:11.220Z,2.35
2022-11-13T09:57:48.988Z,2.32
2022-11-13T10:00:20.999Z,2.16
2022-11-13T10:03:00.659Z,2.24
2022-11-13T10:05:41.837Z,2.21
2022-11-13T10:08:18.301Z,2.20
2022-11-13T10:10:55.596Z,2.15
2022-11-13T10:13:30.538Z,2.15
2022-11-13T10:16:14.485Z,1.63
2022-11-13T10:18:44.677Z,2.12
2022-11-13T10:21:23.149Z,2.15
2022-11-13T10:23:57.770Z,2.09
2022-11-13T10:26:30.423Z,2.11
2022-11-13T10:29:04.446Z,2.01
2022-11-13T10:31:43.886Z,2.07
2022-11-13T10:34:14.431Z,1.99
2022-11-13T10:36:56.583Z,1.86
2022-11-13T10:39:25.754Z,2.03
2022-11-13T10:41:56.870Z,2.02
2022-11-13T10:44:34.139Z,1.98
2022-11-13T10:47:08.739Z,1.96
2022-11-13T10:49:37.815Z,1.94
2022-11-13T10:52:19.431Z,1.94
2022-11-13T10:54:48.863Z,1.92
2022-11-13T10:57:31.078Z,1.86
2022-11-13T11:00:00.275Z,1.83
2022-11-13T11:02:30.854Z,1.85
2022-11-13T11:05:08.039Z,1.80
2022-11-13T11:07:42.646Z,1.63
2022-11-13T11:10:24.308Z,1.76
2022-11-13T11:12:56.818Z,1.83
2022-11-13T11:15:30.081Z,1.80
2022-11-13T11:18:05.358Z,1.82
2022-11-13T11:20:44.612Z,1.81
2022-11-13T11:23:23.427Z,1.86
2022-11-13T11:25:57.358Z,1.78
2022-11-13T11:28:34.534Z,1.86
2022-11-13T11:31:12.349Z,1.85
2022-11-13T11:33:52.781Z,1.80
2022-11-13T11:36:30.337Z,1.80
2022-11-13T11:39:06.671Z,1.79
2022-11-13T11:41:42.446Z,1.75
2022-11-13T11:44:20.280Z,1.78
2022-11-13T11:46:49.433Z,1.79
2022-11-13T11:49:20.895Z,1.79
2022-11-13T11:52:02.293Z,1.76
2022-11-13T11:54:42.435Z,1.74
2022-11-13T11:57:38.448Z,1.73
2022-11-13T12:00:12.928Z,1.65
2022-11-13T12:03:23.045Z,1.63
2022-11-13T12:06:04.623Z,1.74
2022-11-13T12:08:43.485Z,1.70
2022-11-13T12:11:25.503Z,1.73
2022-11-13T12:14:03.994Z,1.59
2022-11-13T12:16:43.044Z,1.75
2022-11-13T12:19:24.424Z,1.74
2022-11-13T12:22:04.509Z,1.75
2022-11-13T12:24:53.200Z,1.70
2022-11-13T12:27:51.475Z,1.69
2022-11-13T12:30:23.440Z,1.74
2022-11-13T12:33:13.580Z,1.70
2022-11-13T12:35:43.089Z,1.76
2022-11-13T12:38:28.029Z,1.67
2022-11-13T12:41:07.210Z,1.69
2022-11-13T12:43:57.533Z,1.47
2022-11-13T12:46:37.098Z,1.55
2022-11-13T12:49:18.585Z,1.53
2022-11-13T12:51:57.098Z,1.57
2022-11-13T12:54:31.493Z,1.54
2022-11-13T12:57:20.873Z,1.60
2022-11-13T12:59:54.495Z,1.60
2022-11-13T13:02:56.141Z,1.61
2022-11-13T13:05:40.565Z,1.57
2022-11-13T13:08:38.263Z,1.46
2022-11-13T13:11:18.578Z,1.42
2022-11-13T13:13:55.489Z,1.37
2022-11-13T13:16:28.198Z,1.41
2022-11-13T13:19:09.839Z,1.42
2022-11-13T13:21:45.440Z,1.36
2022-11-13T13:24:32.740Z,1.41
2022-11-13T13:27:02.621Z,1.29
2022-11-13T13:29:32.759Z,1.28
2022-11-13T13:32:19.310Z,1.18
2022-11-13T13:35:02.784Z,1.27
2022-11-13T13:37:39.583Z,1.21
2022-11-13T13:40:23.189Z,1.18
2022-11-13T13:43:09.694Z,1.11
2022-11-13T13:45:49.813Z,1.20
2022-11-13T13:48:25.578Z,1.20
2022-11-13T13:50:57.738Z,1.26
2022-11-13T13:53:31.567Z,1.18
2022-11-13T13:56:01.366Z,1.18
2022-11-13T13:58:34.264Z,1.21
2022-11-13T14:01:20.039Z,1.10
2022-11-13T14:04:07.509Z,1.16
2022-11-13T14:06:36.746Z,0.97
2022-11-13T14:09:18.642Z,1.07
2022-11-13T14:11:48.457Z,1.03
2022-11-13T14:14:20.669Z,0.75
2022-11-13T14:16:53.904Z,1.09
2022-11-13T14:19:25.107Z,0.98
2022-11-13T14:21:59.208Z,1.09
2022-11-13T14:24:37.335Z,1.05
2022-11-13T14:27:26.698Z,1.09
2022-11-13T14:29:58.832Z,1.10
2022-11-13T14:32:31.352Z,1.10
2022-11-13T14:35:04.222Z,0.63
2022-11-13T14:37:37.590Z,1.02
2022-11-13T14:40:15.333Z,1.04
2022-11-13T14:42:48.318Z,1.02
2022-11-13T14:45:20.083Z,0.95
2022-11-13T14:47:59.952Z,0.92
2022-11-13T14:50:32.221Z,0.81
2022-11-13T14:53:03.696Z,0.83
2022-11-13T14:55:34.326Z,0.87
2022-11-13T14:58:03.482Z,0.90
2022-11-13T15:00:35.855Z,0.82
2022-11-13T15:03:06.958Z,0.83
2022-11-13T15:05:37.715Z,0.84
2022-11-13T15:08:07.671Z,0.84
2022-11-13T15:10:38.758Z,0.93
2022-11-13T15:13:15.779Z,0.90
2022-11-13T15:15:47.810Z,0.83
2022-11-13T15:18:24.073Z,0.84
2022-11-13T15:20:55.976Z,0.94
2022-11-13T15:23:32.327Z,0.95
2022-11-13T15:26:01.477Z,0.95
2022-11-13T15:28:30.744Z,0.96
2022-11-13T15:30:59.921Z,0.95
2022-11-13T15:33:30.204Z,0.73
2022-11-13T15:36:02.111Z,0.63
2022-11-13T15:38:31.425Z,0.47
2022-11-13T15:41:00.635Z,0.47
2022-11-13T15:43:30.190Z,0.76
2022-11-13T15:45:59.947Z,0.77
2022-11-13T15:48:29.309Z,0.83
2022-11-13T15:51:00.521Z,0.96
2022-11-13T15:53:30.391Z,0.91
2022-11-13T15:56:06.354Z,0.84
2022-11-13T15:58:35.622Z,0.49
2022-11-13T16:01:04.869Z,0.89
2022-11-13T16:03:39.974Z,0.18
2022-11-13T16:06:15.008Z,1.01
2022-11-13T16:08:44.309Z,0.45
2022-11-13T16:11:17.364Z,0.87
2022-11-13T16:13:46.707Z,0.45
2022-11-13T16:16:19.071Z,0.63
2022-11-13T16:18:48.299Z,0.94
2022-11-13T16:21:20.105Z,0.39
2022-11-13T16:23:49.380Z,1.05
2022-11-13T16:26:21.973Z,0.66
2022-11-13T16:29:12.561Z,0.42
2022-11-13T16:31:42.141Z,0.59
2022-11-13T16:34:11.461Z,0.62
2022-11-13T16:36:42.914Z,0.73
2022-11-13T16:39:16.556Z,1.11
2022-11-13T16:41:46.841Z,0.69
2022-11-13T16:44:16.184Z,0.69
2022-11-13T16:46:50.007Z,0.65
2022-11-13T16:49:20.779Z,0.97
2022-11-13T16:51:52.433Z,0.21
2022-11-13T16:54:21.791Z,0.61
2022-11-13T16:56:51.409Z,0.51
2022-11-13T16:59:20.884Z,1.26
2022-11-13T17:01:50.176Z,0.71
2022-11-13T17:04:19.392Z,1.29
2022-11-13T17:06:48.581Z,1.29
2022-11-13T17:09:19.230Z,1.20
2022-11-13T17:11:48.350Z,1.29
2022-11-13T17:14:17.443Z,1.26
2022-11-13T17:16:46.682Z,1.30
2022-11-13T17:19:16.016Z,1.22
2022-11-13T17:21:45.160Z,1.29
2022-11-13T17:24:14.361Z,1.30
2022-11-13T17:26:45.057Z,1.31
2022-11-13T17:29:14.273Z,1.29
2022-11-13T17:31:43.425Z,1.29
2022-11-13T17:34:12.614Z,1.29
2022-11-13T17:36:41.831Z,1.27
2022-11-13T17:39:10.986Z,1.28
2022-11-13T17:41:41.276Z,1.34
2022-11-13T17:44:12.158Z,1.35
2022-11-13T17:46:41.338Z,1.18
2022-11-13T17:49:10.450Z,1.30
2022-11-13T17:51:41.323Z,1.35
2022-11-13T17:54:10.772Z,1.20
2022-11-13T17:56:41.997Z,1.31
2022-11-13T17:59:12.884Z,1.41
2022-11-13T18:01:42.278Z,1.43
2022-11-13T18:04:11.619Z,0.97
2022-11-13T18:06:41.244Z,0.96
2022-11-13T18:09:10.661Z,1.00
2022-11-13T18:11:52.588Z,1.48
2022-11-13T18:14:23.592Z,1.41
2022-11-13T18:16:52.858Z,1.30
2022-11-13T18:24:08.656Z,1.25
2022-11-13T18:26:46.585Z,0.83
2022-11-13T18:29:21.896Z,1.50
2022-11-13T18:47:25.184Z,1.03
2022-11-13T18:49:55.322Z,0.87
2022-11-13T18:52:24.737Z,1.34
2022-11-13T18:54:54.024Z,1.19
2022-11-13T18:57:23.260Z,1.12
2022-11-13T18:59:52.872Z,1.11
2022-11-13T19:02:23.743Z,1.02
2022-11-13T19:04:53.085Z,0.76
2022-11-13T19:07:22.384Z,1.38
2022-11-13T19:09:59.525Z,0.88
2022-11-13T19:13:13.744Z,1.20
2022-11-13T19:15:43.432Z,1.06
2022-11-13T19:18:14.985Z,0.71
2022-11-13T19:20:44.258Z,0.46
2022-11-13T19:23:13.519Z,1.00
2022-11-13T19:25:42.872Z,0.91
2022-11-13T19:28:12.131Z,1.08
2022-11-13T19:30:47.901Z,1.25
2022-11-13T19:33:18.729Z,0.67
2022-11-13T19:35:47.942Z,1.07
2022-11-13T19:38:17.288Z,1.43
2022-11-13T19:40:48.738Z,0.91
2022-11-13T19:43:18.247Z,1.08
2022-11-13T19:45:47.599Z,1.43
2022-11-13T19:48:19.086Z,1.25
2022-11-13T19:50:48.625Z,1.02
2022-11-13T19:53:17.910Z,1.46
2022-11-13T19:55:55.915Z,1.36
2022-11-13T19:58:25.942Z,1.41
2022-11-13T20:00:55.475Z,1.33
2022-11-13T20:03:27.873Z,1.35
2022-11-13T20:05:59.863Z,0.83
2022-11-13T20:08:29.510Z,1.46
2022-11-13T20:11:04.224Z,1.16
2022-11-13T20:13:35.020Z,1.07
2022-11-13T20:16:04.423Z,1.30
2022-11-13T20:18:35.174Z,1.06
2022-11-13T20:21:05.065Z,1.03
2022-11-13T20:23:35.768Z,1.38
2022-11-13T20:26:07.315Z,1.27
2022-11-13T20:28:36.830Z,1.03
2022-11-13T20:31:16.705Z,0.44
2022-11-13T20:33:47.879Z,1.39
2022-11-13T20:36:18.937Z,1.00
2022-11-13T20:38:52.241Z,0.83
2022-11-13T20:41:22.288Z,1.40
2022-11-13T20:43:52.321Z,0.96
2022-11-13T20:46:38.107Z,1.50
2022-11-13T20:49:09.163Z,1.35
2022-11-13T20:51:38.458Z,1.28
2022-11-13T20:54:07.786Z,0.97
2022-11-13T20:56:37.051Z,1.02
2022-11-13T20:59:06.362Z,1.29
2022-11-13T21:02:09.813Z,1.55
2022-11-13T21:04:41.380Z,1.00
2022-11-13T21:07:10.683Z,1.33
2022-11-13T21:09:40.042Z,1.50
2022-11-13T21:12:09.851Z,1.22
2022-11-13T21:14:39.245Z,1.37
2022-11-13T21:17:08.537Z,0.84
2022-11-13T21:19:37.796Z,1.12
2022-11-13T21:22:08.535Z,0.94
2022-11-13T21:24:38.427Z,1.46
2022-11-13T21:27:07.670Z,1.14
2022-11-13T21:29:36.956Z,1.15
2022-11-13T21:32:06.352Z,1.50
2022-11-13T21:34:35.546Z,1.03
2022-11-13T21:37:04.765Z,1.53
2022-11-13T21:39:35.717Z,1.54
2022-11-13T21:42:05.074Z,0.81
2022-11-13T21:44:34.266Z,1.65
2022-11-13T21:47:03.521Z,1.56
2022-11-13T21:49:32.889Z,1.40
2022-11-13T21:52:02.080Z,1.24
2022-11-13T21:54:31.415Z,1.61
2022-11-13T21:57:02.247Z,1.21
2022-11-13T21:59:32.052Z,0.93
2022-11-13T22:02:02.060Z,1.64
2022-11-13T22:04:31.363Z,1.61
2022-11-13T22:07:00.626Z,1.14
2022-11-13T22:09:30.136Z,1.48
2022-11-13T22:11:59.345Z,1.34
2022-11-13T22:14:30.029Z,1.21
2022-11-13T22:16:59.358Z,1.64
2022-11-13T22:19:32.242Z,1.03
2022-11-13T22:22:04.083Z,1.63
2022-11-13T22:24:33.388Z,1.25
2022-11-13T22:27:02.683Z,1.21
2022-11-13T22:29:33.474Z,1.33
2022-11-13T22:32:02.731Z,1.73
2022-11-13T22:34:32.119Z,1.53
2022-11-13T22:37:01.942Z,1.60
2022-11-13T22:39:31.488Z,1.51
2022-11-13T22:42:00.717Z,1.69
2022-11-13T22:44:51.239Z,1.31
2022-11-13T22:47:20.674Z,1.65
2022-11-13T22:49:49.968Z,1.23
2022-11-13T22:52:19.219Z,0.70
2022-11-13T22:54:48.586Z,1.86
2022-11-13T22:57:17.820Z,1.41
2022-11-13T22:59:47.102Z,1.52
2022-11-13T23:02:16.403Z,1.43
2022-11-13T23:04:47.136Z,1.31
2022-11-13T23:07:16.568Z,1.83
2022-11-13T23:09:45.874Z,1.79
2022-11-13T23:12:15.733Z,2.01
2022-11-13T23:14:45.023Z,1.49
2022-11-13T23:17:14.302Z,2.04
2022-11-13T23:19:43.648Z,1.89
2022-11-13T23:23:05.694Z,1.55
2022-11-13T23:25:35.220Z,1.39
2022-11-13T23:28:04.958Z,1.80
2022-11-13T23:30:34.238Z,1.37
2022-11-13T23:33:03.613Z,1.20
2022-11-13T23:35:32.963Z,2.04
2022-11-13T23:38:03.807Z,0.72
2022-11-13T23:40:33.147Z,1.81
2022-11-13T23:43:02.431Z,2.04
2022-11-13T23:45:31.754Z,1.51
2022-11-13T23:48:00.935Z,1.96
2022-11-13T23:50:30.406Z,1.15
2022-11-13T23:56:52.491Z,1.63
2022-11-13T23:59:21.770Z,1.85
